Time;durP1;ratioP1;P1;durP2;ratioP2;P2;SDS_P1;SDS_P2;PMS_P1;PMS_P2;Temp;Humidity;BMP_temperature;BMP_pressure;BME280_temperature;BME280_humidity;BME280_pressure;Samples;Min_cycle;Max_cycle;Signal;HPM_P1;HPM_P2
2022/08/02 00:00:39;;;;;;;;;5.00;5.00;;;30.27;97523.23;;;;119061;1188;24946;-70
2022/08/02 00:03:08;;;;;;;;;5.50;5.00;;;30.27;97526.46;;;;119090;1187;25145;-72
2022/08/02 00:05:36;;;;;;;;;5.75;4.50;;;30.28;97529.77;;;;119125;1188;25528;-70
2022/08/02 00:08:06;;;;;;;;;3.25;3.25;;;30.27;97531.27;;;;119160;1188;25125;-73
2022/08/02 00:10:36;;;;;;;;;5.50;4.25;;;30.26;97530.27;;;;119183;1188;24867;-69
2022/08/02 00:13:04;;;;;;;;;4.50;4.50;;;30.26;97527.07;;;;119008;1190;25641;-70
2022/08/02 00:15:32;;;;;;;;;4.00;4.00;;;30.25;97528.00;;;;119194;1188;25115;-71
2022/08/02 00:17:59;;;;;;;;;5.00;4.00;;;30.23;97529.06;;;;119160;1187;25450;-70
2022/08/02 00:20:27;;;;;;;;;4.50;4.50;;;30.22;97527.81;;;;119144;1187;25756;-68
2022/08/02 00:22:55;;;;;;;;;4.75;4.75;;;30.20;97528.61;;;;119046;1189;26529;-69
2022/08/02 00:25:23;;;;;;;;;5.75;5.75;;;30.19;97528.77;;;;119216;1187;25701;-69
2022/08/02 00:27:51;;;;;;;;;5.33;5.33;;;30.19;97528.61;;;;119211;1188;25593;-69
2022/08/02 00:30:18;;;;;;;;;6.00;4.50;;;30.16;97528.44;;;;119215;1188;25397;-72
2022/08/02 00:32:46;;;;;;;;;4.75;4.75;;;30.16;97531.60;;;;119200;1188;26209;-72
2022/08/02 00:35:14;;;;;;;;;6.00;6.00;;;30.14;97531.30;;;;119178;1187;24745;-71
2022/08/02 00:37:42;;;;;;;;;3.67;3.67;;;30.15;97532.64;;;;119181;1187;24740;-71
2022/08/02 00:40:10;;;;;;;;;7.25;5.25;;;30.14;97534.13;;;;119158;1188;25517;-72
2022/08/02 00:42:39;;;;;;;;;4.25;4.00;;;30.13;97533.48;;;;119170;1188;24970;-71
2022/08/02 00:45:07;;;;;;;;;5.00;5.00;;;30.12;97539.44;;;;119180;1187;25753;-68
2022/08/02 00:47:35;;;;;;;;;5.25;4.25;;;30.13;97539.35;;;;119184;1188;25628;-69
2022/08/02 00:50:04;;;;;;;;;5.50;4.50;;;30.12;97540.04;;;;119173;1188;24821;-69
2022/08/02 00:52:32;;;;;;;;;4.75;4.75;;;30.10;97538.94;;;;119175;1188;25184;-69
2022/08/02 00:55:00;;;;;;;;;2.25;2.25;;;30.10;97537.54;;;;119170;1188;25539;-69
2022/08/02 00:57:27;;;;;;;;;4.00;4.00;;;30.11;97535.03;;;;119187;1188;25644;-68
2022/08/02 00:59:55;;;;;;;;;5.00;4.67;;;30.10;97535.13;;;;119161;1187;25939;-69
2022/08/02 01:02:23;;;;;;;;;6.00;5.00;;;30.10;97531.06;;;;119160;1188;26250;-69
2022/08/02 01:04:51;;;;;;;;;5.00;4.50;;;30.09;97530.10;;;;119177;1187;26123;-70
2022/08/02 01:07:19;;;;;;;;;5.00;5.00;;;30.09;97530.44;;;;119148;1187;25034;-70
2022/08/02 01:09:47;;;;;;;;;6.00;6.00;;;30.08;97525.77;;;;119177;1187;25164;-69
2022/08/02 01:12:15;;;;;;;;;7.75;5.00;;;30.08;97524.27;;;;119045;1190;26313;-70
2022/08/02 01:14:47;;;;;;;;;5.00;3.50;;;30.08;97523.02;;;;119179;1187;25417;-69
2022/08/02 01:17:26;;;;;;;;;3.00;3.00;;;30.09;97521.83;;;;119040;1190;25466;-70
2022/08/02 01:20:06;;;;;;;;;6.00;5.00;;;30.11;97524.25;;;;119168;1188;25729;-70
2022/08/02 01:22:45;;;;;;;;;7.25;6.50;;;30.12;97521.61;;;;119159;1188;25266;-70
2022/08/02 01:25:38;;;;;;;;;5.25;4.75;;;30.15;97519.50;;;;119170;1188;24797;-69
2022/08/02 01:28:30;;;;;;;;;8.25;5.25;;;30.16;97514.54;;;;119043;1188;26411;-70
2022/08/02 01:31:03;;;;;;;;;6.67;4.00;;;30.14;97515.70;;;;119172;1188;25313;-70
2022/08/02 01:33:35;;;;;;;;;3.50;3.50;;;30.10;97515.02;;;;119146;1188;25515;-69
2022/08/02 01:36:04;;;;;;;;;6.67;5.33;;;30.10;97516.89;;;;119130;1187;25332;-68
2022/08/02 01:38:37;;;;;;;;;6.50;4.50;;;30.10;97518.86;;;;119063;1188;25492;-71
2022/08/02 01:41:07;;;;;;;;;5.50;5.00;;;30.10;97516.59;;;;119149;1188;26018;-70
2022/08/02 01:43:37;;;;;;;;;4.75;4.75;;;30.10;97518.80;;;;119055;1189;25515;-70
2022/08/02 01:46:06;;;;;;;;;5.00;5.00;;;30.09;97521.73;;;;119084;1189;24977;-72
2022/08/02 01:48:34;;;;;;;;;5.25;5.25;;;30.08;97518.68;;;;118982;1190;25351;-71
2022/08/02 01:51:03;;;;;;;;;4.00;4.00;;;30.09;97516.20;;;;119162;1188;25156;-72
2022/08/02 01:53:32;;;;;;;;;3.00;3.00;;;30.09;97520.27;;;;119049;1189;25447;-69
2022/08/02 01:56:01;;;;;;;;;3.00;3.00;;;30.08;97519.00;;;;119048;1189;25581;-68
2022/08/02 01:58:31;;;;;;;;;5.00;5.00;;;30.07;97517.75;;;;119153;1187;25043;-69
2022/08/02 02:01:00;;;;;;;;;6.50;4.00;;;30.06;97516.99;;;;119145;1187;25526;-69
2022/08/02 02:03:28;;;;;;;;;8.25;6.00;;;30.06;97517.52;;;;119061;1188;26187;-69
2022/08/02 02:05:57;;;;;;;;;4.25;4.25;;;30.05;97515.97;;;;119142;1188;26574;-70
2022/08/02 02:08:31;;;;;;;;;3.50;3.50;;;30.04;97516.11;;;;119063;1187;25486;-70
2022/08/02 02:11:00;;;;;;;;;7.00;5.00;;;30.04;97515.17;;;;119162;1187;25299;-71
2022/08/02 02:13:49;;;;;;;;;5.50;5.00;;;30.09;97518.66;;;;119159;1187;25074;-74
2022/08/02 02:16:18;;;;;;;;;4.00;4.00;;;30.11;97520.28;;;;119133;1186;25597;-71
2022/08/02 02:18:48;;;;;;;;;4.75;4.75;;;30.08;97520.45;;;;119131;1188;25400;-70
2022/08/02 02:21:15;;;;;;;;;6.00;5.50;;;30.07;97516.48;;;;119077;1188;25490;-72
2022/08/02 02:23:43;;;;;;;;;4.25;3.75;;;30.05;97517.95;;;;119162;1188;26145;-69
2022/08/02 02:26:14;;;;;;;;;4.75;4.00;;;30.04;97517.23;;;;119166;1188;26253;-70
2022/08/02 02:28:50;;;;;;;;;5.25;5.00;;;30.06;97520.11;;;;119056;1187;24991;-70
2022/08/02 02:31:19;;;;;;;;;4.00;4.00;;;30.08;97520.27;;;;119180;1188;25110;-70
2022/08/02 02:33:57;;;;;;;;;6.25;4.75;;;30.06;97522.08;;;;119170;1187;25616;-70
2022/08/02 02:36:27;;;;;;;;;4.50;4.00;;;30.07;97524.10;;;;119040;1189;24803;-72
2022/08/02 02:38:59;;;;;;;;;6.33;5.67;;;30.06;97523.43;;;;119058;1187;25250;-71
2022/08/02 02:41:28;;;;;;;;;5.50;5.50;;;30.06;97525.16;;;;119160;1187;25646;-75
2022/08/02 02:43:59;;;;;;;;;5.00;5.00;;;30.06;97529.98;;;;119129;1188;26143;-70
2022/08/02 02:46:29;;;;;;;;;6.50;5.75;;;30.04;97528.36;;;;119158;1189;26264;-70
2022/08/02 02:48:57;;;;;;;;;5.25;4.25;;;30.04;97527.90;;;;119048;1189;25889;-70
2022/08/02 02:51:26;;;;;;;;;4.00;4.00;;;30.03;97525.17;;;;119030;1189;25325;-72
2022/08/02 02:53:54;;;;;;;;;6.50;5.25;;;30.01;97525.31;;;;118974;1190;25745;-70
2022/08/02 02:56:43;;;;;;;;;8.00;4.33;;;30.05;97523.41;;;;119043;1190;25346;-70
2022/08/02 02:59:14;;;;;;;;;4.00;4.00;;;30.07;97523.63;;;;119065;1187;25427;-70
2022/08/02 03:01:42;;;;;;;;;5.25;4.00;;;30.05;97526.84;;;;119061;1189;25529;-73
2022/08/02 03:04:26;;;;;;;;;4.00;4.00;;;30.06;97531.92;;;;119047;1189;25650;-70
2022/08/02 03:07:14;;;;;;;;;5.25;5.25;;;30.12;97530.80;;;;119130;1188;26255;-69
2022/08/02 03:09:42;;;;;;;;;5.50;5.00;;;30.13;97527.91;;;;119168;1188;25209;-68
2022/08/02 03:12:10;;;;;;;;;3.00;2.25;;;30.08;97528.13;;;;119036;1189;25144;-68
2022/08/02 03:14:41;;;;;;;;;4.00;4.00;;;30.05;97528.16;;;;119104;1188;24955;-69
2022/08/02 03:17:09;;;;;;;;;3.00;2.00;;;30.03;97532.50;;;;119117;1188;25448;-69
2022/08/02 03:19:38;;;;;;;;;4.00;3.00;;;30.01;97534.53;;;;119111;1187;25937;-69
2022/08/02 03:22:05;;;;;;;;;5.00;4.25;;;30.00;97536.72;;;;119103;1188;24968;-70
2022/08/02 03:24:33;;;;;;;;;4.25;4.25;;;30.00;97539.90;;;;119089;1187;25241;-71
2022/08/02 03:27:01;;;;;;;;;6.75;5.50;;;29.99;97543.50;;;;119071;1188;25673;-71
2022/08/02 03:29:29;;;;;;;;;3.25;3.25;;;29.97;97548.97;;;;118936;1190;25708;-69
2022/08/02 03:32:01;;;;;;;;;5.00;4.75;;;29.99;97544.92;;;;119121;1187;25275;-71
2022/08/02 03:34:29;;;;;;;;;5.00;5.00;;;29.99;97546.27;;;;119134;1188;26026;-69
2022/08/02 03:36:57;;;;;;;;;5.00;5.00;;;29.99;97548.46;;;;119055;1189;25113;-69
2022/08/02 03:39:26;;;;;;;;;5.00;4.00;;;29.97;97550.44;;;;119077;1189;25485;-69
2022/08/02 03:41:54;;;;;;;;;3.25;3.25;;;29.97;97556.30;;;;119143;1187;25487;-73
2022/08/02 03:44:23;;;;;;;;;3.50;3.00;;;29.96;97556.63;;;;119181;1187;25449;-73
2022/08/02 03:46:51;;;;;;;;;6.25;5.00;;;29.95;97562.10;;;;119177;1188;26456;-72
2022/08/02 03:49:19;;;;;;;;;7.00;4.75;;;29.94;97563.81;;;;119030;1188;25270;-72
2022/08/02 03:51:48;;;;;;;;;7.75;7.00;;;29.95;97561.52;;;;119049;1189;25084;-77
2022/08/02 03:54:16;;;;;;;;;11.33;9.00;;;29.94;97566.17;;;;119005;1190;25677;-73
2022/08/02 03:56:44;;;;;;;;;8.75;6.00;;;29.94;97565.40;;;;119165;1188;25719;-76
2022/08/02 03:59:13;;;;;;;;;7.75;6.00;;;29.96;97567.02;;;;119151;1186;25635;-78
2022/08/02 04:01:41;;;;;;;;;7.75;6.50;;;29.96;97570.38;;;;119146;1188;25139;-77
2022/08/02 04:04:09;;;;;;;;;8.50;6.75;;;29.96;97569.96;;;;119031;1189;26268;-78
2022/08/02 04:06:37;;;;;;;;;7.50;6.25;;;29.96;97572.69;;;;119147;1187;25322;-74
2022/08/02 04:09:08;;;;;;;;;13.75;9.00;;;29.97;97577.69;;;;119128;1187;25234;-72
2022/08/02 04:11:36;;;;;;;;;10.25;7.75;;;29.98;97580.78;;;;119166;1187;25688;-70
2022/08/02 04:14:07;;;;;;;;;7.00;7.00;;;29.97;97582.85;;;;119157;1187;25268;-69
2022/08/02 04:16:46;;;;;;;;;9.00;6.00;;;29.96;97584.78;;;;119149;1187;24912;-71
2022/08/02 04:19:23;;;;;;;;;6.67;6.67;;;29.98;97581.45;;;;119313;1188;25666;-68
2022/08/02 04:21:52;;;;;;;;;6.00;6.00;;;30.12;97583.69;;;;119402;1186;25378;-67
2022/08/02 04:24:24;;;;;;;;;7.25;6.75;;;30.34;97584.42;;;;119133;1189;24732;-67
2022/08/02 04:26:54;;;;;;;;;7.75;5.50;;;30.23;97588.58;;;;119273;1188;24830;-69
2022/08/02 04:29:29;;;;;;;;;6.00;6.00;;;30.16;97591.04;;;;119069;1189;24777;-68
2022/08/02 04:31:57;;;;;;;;;11.00;7.25;;;30.17;97590.69;;;;119091;1189;24861;-64
2022/08/02 04:34:25;;;;;;;;;7.75;6.25;;;30.23;97587.46;;;;119213;1187;25207;-69
2022/08/02 04:36:54;;;;;;;;;0.75;0.75;;;30.14;97589.63;;;;119184;1187;25181;-74
2022/08/02 04:39:22;;;;;;;;;7.75;5.50;;;30.04;97586.95;;;;119198;1187;25683;-74
2022/08/02 04:41:50;;;;;;;;;8.00;6.50;;;29.93;97588.61;;;;119178;1187;24718;-73
2022/08/02 04:44:26;;;;;;;;;10.50;6.50;;;29.85;97587.77;;;;119185;1187;25689;-78
2022/08/02 04:46:54;;;;;;;;;4.00;3.00;;;29.78;97582.67;;;;119036;1189;26208;-74
2022/08/02 04:49:22;;;;;;;;;10.50;7.75;;;29.72;97580.98;;;;119021;1189;25004;-74
2022/08/02 04:51:50;;;;;;;;;5.50;4.75;;;29.70;97581.77;;;;119185;1187;25199;-71
2022/08/02 04:54:19;;;;;;;;;8.75;6.75;;;29.69;97583.14;;;;119216;1188;25624;-75
2022/08/02 04:56:47;;;;;;;;;14.00;7.00;;;29.65;97586.64;;;;119159;1187;24833;-66
2022/08/02 04:59:15;;;;;;;;;13.50;10.50;;;29.62;97586.64;;;;119160;1188;25732;-69
2022/08/02 05:01:43;;;;;;;;;13.25;11.00;;;29.58;97588.91;;;;119149;1188;24916;-69
2022/08/02 05:04:11;;;;;;;;;17.75;12.25;;;29.55;97586.23;;;;119127;1188;25355;-69
2022/08/02 05:06:39;;;;;;;;;13.75;9.25;;;29.53;97590.09;;;;119075;1188;26149;-69
2022/08/02 05:09:06;;;;;;;;;12.00;11.00;;;29.50;97594.63;;;;119135;1188;26259;-69
2022/08/02 05:11:34;;;;;;;;;9.25;6.00;;;29.50;97596.77;;;;119115;1187;25641;-69
2022/08/02 05:14:04;;;;;;;;;13.00;10.00;;;29.52;97598.27;;;;119156;1187;25602;-70
2022/08/02 05:16:32;;;;;;;;;14.50;9.25;;;29.53;97597.36;;;;119160;1188;25026;-69
2022/08/02 05:19:01;;;;;;;;;10.00;7.00;;;29.53;97599.92;;;;119139;1188;25187;-70
2022/08/02 05:21:30;;;;;;;;;10.25;8.75;;;29.52;97601.06;;;;118977;1188;25540;-69
2022/08/02 05:23:58;;;;;;;;;10.25;9.50;;;29.53;97607.86;;;;119016;1189;26585;-69
2022/08/02 05:26:26;;;;;;;;;8.25;7.75;;;29.54;97608.55;;;;119130;1187;25055;-69
2022/08/02 05:28:54;;;;;;;;;6.50;5.00;;;29.53;97610.41;;;;119120;1188;24840;-69
2022/08/02 05:31:22;;;;;;;;;13.00;9.50;;;29.52;97609.38;;;;119095;1188;25455;-70
2022/08/02 05:33:50;;;;;;;;;9.50;7.25;;;29.52;97612.84;;;;119097;1188;24891;-69
2022/08/02 05:36:18;;;;;;;;;12.50;9.50;;;29.54;97617.41;;;;119096;1189;26440;-69
2022/08/02 05:38:51;;;;;;;;;8.25;8.25;;;29.53;97618.02;;;;119117;1188;25199;-70
2022/08/02 05:41:32;;;;;;;;;10.75;7.75;;;29.57;97620.61;;;;119008;1188;25774;-73
2022/08/02 05:43:59;;;;;;;;;9.00;7.00;;;29.59;97623.95;;;;118984;1189;26357;-70
2022/08/02 05:46:27;;;;;;;;;8.00;8.00;;;29.59;97627.73;;;;119030;1189;26247;-70
2022/08/02 05:48:55;;;;;;;;;6.50;5.75;;;29.58;97624.88;;;;119109;1187;25821;-71
2022/08/02 05:51:39;;;;;;;;;10.75;8.50;;;29.57;97625.21;;;;119127;1188;25221;-70
2022/08/02 05:54:39;;;;;;;;;6.75;6.00;;;29.58;97628.23;;;;119114;1187;25014;-71
2022/08/02 05:57:07;;;;;;;;;7.67;5.67;;;29.64;97630.34;;;;119001;1189;25172;-70
2022/08/02 05:59:58;;;;;;;;;10.75;9.00;;;29.67;97633.08;;;;119097;1187;24883;-70
2022/08/02 06:02:43;;;;;;;;;5.75;5.75;;;29.65;97637.91;;;;119081;1187;25373;-69
2022/08/02 06:05:18;;;;;;;;;7.00;6.33;;;29.61;97639.81;;;;119081;1188;25465;-69
2022/08/02 06:07:48;;;;;;;;;11.50;8.75;;;29.54;97638.42;;;;119106;1187;25009;-69
2022/08/02 06:10:19;;;;;;;;;8.50;7.50;;;29.50;97643.55;;;;119151;1187;24839;-69
2022/08/02 06:13:09;;;;;;;;;6.75;6.00;;;29.46;97644.88;;;;119134;1187;25571;-69
2022/08/02 06:15:41;;;;;;;;;9.25;9.25;;;29.46;97642.64;;;;119113;1188;25181;-71
2022/08/02 06:18:21;;;;;;;;;6.25;6.25;;;29.44;97644.45;;;;119191;1188;24800;-67
2022/08/02 06:20:58;;;;;;;;;3.75;3.75;;;29.54;97648.66;;;;119374;1186;24769;-67
2022/08/02 06:23:46;;;;;;;;;9.25;8.50;;;29.66;97653.54;;;;119166;1188;24892;-67
2022/08/02 06:26:27;;;;;;;;;8.00;8.00;;;29.65;97654.23;;;;119428;1187;25159;-68
2022/08/02 06:28:56;;;;;;;;;8.67;6.00;;;29.55;97654.86;;;;119451;1187;24846;-67
2022/08/02 06:31:24;;;;;;;;;7.25;7.25;;;29.41;97650.76;;;;119401;1187;25514;-68
2022/08/02 06:33:52;;;;;;;;;6.50;6.50;;;29.33;97647.60;;;;119409;1187;25434;-66
2022/08/02 06:36:37;;;;;;;;;8.00;8.00;;;29.30;97642.30;;;;119434;1187;25585;-66
2022/08/02 06:39:29;;;;;;;;;7.00;6.25;;;29.27;97653.34;;;;119339;1188;25660;-65
2022/08/02 06:41:58;;;;;;;;;5.50;5.50;;;29.44;97650.95;;;;119196;1186;25075;-65
2022/08/02 06:44:26;;;;;;;;;5.75;5.25;;;29.50;97656.85;;;;119129;1188;25447;-66
2022/08/02 06:47:14;;;;;;;;;6.25;6.25;;;29.48;97654.76;;;;119121;1188;25515;-65
2022/08/02 06:49:42;;;;;;;;;7.00;7.00;;;29.48;97652.44;;;;119147;1187;25688;-66
2022/08/02 06:52:23;;;;;;;;;4.75;4.75;;;29.48;97650.39;;;;119047;1188;25314;-67
2022/08/02 06:55:00;;;;;;;;;8.00;6.00;;;29.48;97652.14;;;;118987;1189;25598;-67
2022/08/02 06:57:29;;;;;;;;;4.50;4.00;;;29.46;97652.98;;;;119127;1187;25001;-65
2022/08/02 07:00:00;;;;;;;;;6.50;5.00;;;29.45;97650.84;;;;119016;1189;26211;-66
2022/08/02 07:02:29;;;;;;;;;10.00;6.25;;;29.44;97651.27;;;;119143;1188;25031;-66
2022/08/02 07:04:58;;;;;;;;;6.50;5.50;;;29.51;97654.96;;;;119147;1189;25240;-66
2022/08/02 07:07:26;;;;;;;;;8.25;6.75;;;29.50;97650.58;;;;119137;1187;25265;-66
2022/08/02 07:09:54;;;;;;;;;3.67;3.67;;;29.49;97654.41;;;;119236;1188;25085;-67
2022/08/02 07:12:30;;;;;;;;;6.50;5.75;;;29.48;97655.91;;;;119132;1187;24812;-65
2022/08/02 07:15:04;;;;;;;;;6.25;5.25;;;29.47;97654.73;;;;119126;1188;25614;-67
2022/08/02 07:17:33;;;;;;;;;6.00;6.00;;;29.47;97655.77;;;;119214;1188;25512;-69
2022/08/02 07:20:01;;;;;;;;;4.25;4.25;;;29.44;97648.70;;;;119235;1188;25666;-69
2022/08/02 07:22:29;;;;;;;;;3.33;3.33;;;29.42;97654.17;;;;119260;1188;25531;-69
2022/08/02 07:24:58;;;;;;;;;5.00;3.33;;;29.41;97652.37;;;;118962;1190;24780;-68
2022/08/02 07:27:27;;;;;;;;;3.00;3.00;;;29.41;97653.52;;;;119230;1187;25056;-68
2022/08/02 07:29:55;;;;;;;;;6.25;5.75;;;29.42;97651.25;;;;119016;1188;25097;-68
2022/08/02 07:32:27;;;;;;;;;9.00;5.25;;;29.44;97649.16;;;;119227;1188;25849;-65
2022/08/02 07:34:55;;;;;;;;;5.00;5.00;;;29.44;97650.14;;;;119201;1188;25488;-66
2022/08/02 07:37:26;;;;;;;;;4.75;4.75;;;29.46;97650.09;;;;119206;1188;25591;-67
2022/08/02 07:40:14;;;;;;;;;4.25;4.25;;;29.50;97648.38;;;;119075;1188;25322;-66
2022/08/02 07:42:50;;;;;;;;;5.00;5.00;;;29.52;97652.07;;;;119024;1188;25515;-66
2022/08/02 07:45:21;;;;;;;;;6.25;6.25;;;29.53;97650.94;;;;119224;1187;25712;-66
2022/08/02 07:47:50;;;;;;;;;7.75;5.00;;;29.50;97647.77;;;;119042;1189;25475;-67
2022/08/02 07:50:19;;;;;;;;;6.75;5.25;;;29.51;97652.77;;;;119230;1188;26397;-67
2022/08/02 07:52:48;;;;;;;;;7.75;5.75;;;29.49;97650.73;;;;119197;1188;25250;-71
2022/08/02 07:55:17;;;;;;;;;5.00;5.00;;;29.45;97649.35;;;;119198;1188;25615;-74
2022/08/02 07:57:46;;;;;;;;;6.00;6.00;;;29.43;97651.45;;;;118997;1189;25535;-64
2022/08/02 08:00:15;;;;;;;;;6.00;6.00;;;29.40;97647.52;;;;119184;1187;25016;-65
2022/08/02 08:02:44;;;;;;;;;5.00;4.25;;;29.36;97649.65;;;;119197;1188;26311;-66
2022/08/02 08:05:13;;;;;;;;;5.00;5.00;;;29.34;97658.33;;;;119032;1188;25231;-66
2022/08/02 08:07:41;;;;;;;;;2.75;2.75;;;29.33;97649.21;;;;119207;1188;24789;-65
2022/08/02 08:10:10;;;;;;;;;6.25;5.75;;;29.34;97648.09;;;;119186;1187;25028;-66
2022/08/02 08:12:38;;;;;;;;;8.00;6.50;;;29.32;97652.24;;;;119181;1186;24736;-65
2022/08/02 08:15:06;;;;;;;;;6.00;5.00;;;29.30;97657.61;;;;119143;1187;24866;-65
2022/08/02 08:17:35;;;;;;;;;4.50;4.50;;;29.28;97659.63;;;;119177;1187;25237;-66
2022/08/02 08:20:04;;;;;;;;;6.75;6.75;;;29.30;97666.44;;;;119166;1187;25797;-67
2022/08/02 08:22:31;;;;;;;;;7.25;6.25;;;29.28;97664.38;;;;119176;1187;25746;-66
2022/08/02 08:24:59;;;;;;;;;5.25;5.00;;;29.29;97665.89;;;;119169;1188;25650;-67
2022/08/02 08:27:27;;;;;;;;;5.00;5.00;;;29.29;97665.52;;;;119216;1187;25726;-66
2022/08/02 08:29:56;;;;;;;;;5.00;5.00;;;29.29;97662.42;;;;119178;1187;25438;-69
2022/08/02 08:32:23;;;;;;;;;6.50;5.75;;;29.30;97667.91;;;;119176;1187;24949;-66
2022/08/02 08:34:52;;;;;;;;;5.25;5.25;;;29.29;97670.05;;;;119187;1187;25103;-66
2022/08/02 08:37:20;;;;;;;;;6.75;5.00;;;29.30;97667.44;;;;119047;1189;25013;-70
2022/08/02 08:39:48;;;;;;;;;4.50;4.50;;;29.31;97668.55;;;;119180;1186;25685;-70
2022/08/02 08:42:26;;;;;;;;;2.00;2.00;;;29.32;97666.84;;;;119157;1186;25475;-67
2022/08/02 08:44:55;;;;;;;;;3.50;3.50;;;29.33;97670.66;;;;119147;1188;25632;-71
2022/08/02 08:47:31;;;;;;;;;8.00;6.25;;;29.32;97665.52;;;;119158;1187;25187;-69
2022/08/02 08:50:07;;;;;;;;;5.25;3.75;;;29.30;97666.08;;;;119157;1187;25482;-68
2022/08/02 08:52:53;;;;;;;;;5.25;4.50;;;29.33;97665.38;;;;119160;1187;24887;-68
2022/08/02 08:55:23;;;;;;;;;4.75;3.50;;;29.36;97665.73;;;;119153;1187;25106;-68
2022/08/02 08:57:53;;;;;;;;;3.75;3.75;;;29.34;97668.90;;;;119009;1188;24877;-69
2022/08/02 09:00:21;;;;;;;;;5.75;4.00;;;29.34;97667.56;;;;118921;1190;25140;-69
2022/08/02 09:02:49;;;;;;;;;5.00;5.00;;;29.33;97672.70;;;;118982;1190;25542;-70
2022/08/02 09:05:17;;;;;;;;;4.00;4.00;;;29.30;97666.47;;;;118964;1189;24727;-70
2022/08/02 09:07:48;;;;;;;;;5.75;5.75;;;29.32;97674.69;;;;118979;1189;25821;-70
2022/08/02 09:10:34;;;;;;;;;5.25;4.75;;;29.33;97674.27;;;;118976;1190;26006;-69
2022/08/02 09:13:21;;;;;;;;;4.00;4.00;;;29.36;97674.11;;;;119015;1190;24854;-72
2022/08/02 09:16:08;;;;;;;;;3.75;3.50;;;29.41;97670.31;;;;118982;1189;24859;-67
2022/08/02 09:18:44;;;;;;;;;3.00;3.00;;;29.44;97667.65;;;;119024;1189;26331;-69
2022/08/02 09:21:15;;;;;;;;;4.50;4.00;;;29.41;97665.52;;;;118953;1188;25040;-70
2022/08/02 09:23:45;;;;;;;;;3.33;3.33;;;29.38;97664.84;;;;118987;1190;24926;-66
2022/08/02 09:26:15;;;;;;;;;5.25;5.00;;;29.36;97657.61;;;;119022;1189;24890;-66
2022/08/02 09:28:48;;;;;;;;;6.33;4.67;;;29.34;97660.01;;;;119001;1190;24943;-67
2022/08/02 09:31:19;;;;;;;;;4.25;4.25;;;29.32;97653.48;;;;119007;1190;25372;-67
2022/08/02 09:33:53;;;;;;;;;3.75;3.50;;;29.32;97657.60;;;;118997;1189;25331;-68
2022/08/02 09:36:22;;;;;;;;;4.50;4.50;;;29.31;97659.92;;;;118954;1190;25730;-73
2022/08/02 09:38:56;;;;;;;;;4.00;4.00;;;29.31;97657.77;;;;118970;1190;26158;-74
2022/08/02 09:41:27;;;;;;;;;5.00;4.00;;;29.31;97657.39;;;;118986;1189;25456;-73
2022/08/02 09:43:56;;;;;;;;;6.00;6.00;;;29.28;97658.13;;;;119002;1189;25494;-73
2022/08/02 09:46:44;;;;;;;;;3.50;3.50;;;29.27;97650.59;;;;118964;1190;26256;-70
2022/08/02 09:49:20;;;;;;;;;4.00;4.00;;;29.31;97654.70;;;;118979;1190;26105;-69
2022/08/02 09:51:51;;;;;;;;;2.75;2.75;;;29.32;97652.77;;;;119001;1189;25982;-81
2022/08/02 09:54:27;;;;;;;;;8.00;5.50;;;29.32;97652.55;;;;118984;1189;25497;-83
2022/08/02 09:56:58;;;;;;;;;3.50;3.50;;;29.33;97653.45;;;;119017;1190;25639;-70
2022/08/02 09:59:27;;;;;;;;;7.50;5.50;;;29.37;97649.21;;;;118972;1189;25373;-66
2022/08/02 10:01:57;;;;;;;;;5.50;5.50;;;29.37;97642.27;;;;119127;1187;25514;-68
2022/08/02 10:04:44;;;;;;;;;5.00;5.00;;;29.38;97641.10;;;;119004;1189;24966;-69
2022/08/02 10:07:21;;;;;;;;;5.00;5.00;;;29.41;97641.41;;;;119094;1188;24999;-66
2022/08/02 10:09:51;;;;;;;;;3.25;3.25;;;29.41;97638.25;;;;119124;1187;25990;-67
2022/08/02 10:12:21;;;;;;;;;4.25;4.25;;;29.39;97639.80;;;;119154;1189;24766;-70
2022/08/02 10:14:50;;;;;;;;;4.00;3.00;;;29.41;97630.77;;;;119099;1188;25623;-68
2022/08/02 10:17:20;;;;;;;;;6.50;5.00;;;29.41;97625.64;;;;118975;1189;25410;-71
2022/08/02 10:19:48;;;;;;;;;3.00;3.00;;;29.41;97623.27;;;;119068;1188;25449;-73
2022/08/02 10:22:32;;;;;;;;;2.75;2.75;;;29.44;97626.24;;;;118971;1189;26132;-73
2022/08/02 10:25:03;;;;;;;;;6.50;4.75;;;29.46;97625.02;;;;119074;1188;25641;-67
2022/08/02 10:27:31;;;;;;;;;4.75;4.75;;;29.47;97622.27;;;;119058;1187;25011;-68
2022/08/02 10:30:21;;;;;;;;;5.00;5.00;;;29.49;97622.73;;;;119004;1188;24925;-68
2022/08/02 10:32:52;;;;;;;;;4.00;4.00;;;29.52;97623.33;;;;119077;1188;25743;-71
2022/08/02 10:35:22;;;;;;;;;5.25;4.50;;;29.51;97615.94;;;;118962;1189;25957;-70
2022/08/02 10:38:02;;;;;;;;;5.00;4.00;;;29.53;97622.13;;;;118927;1188;25619;-68
2022/08/02 10:40:44;;;;;;;;;4.75;4.00;;;29.55;97616.77;;;;119090;1188;24767;-66
2022/08/02 10:43:35;;;;;;;;;5.75;5.25;;;29.55;97610.89;;;;118958;1189;24968;-70
2022/08/02 10:46:34;;;;;;;;;5.00;5.00;;;29.59;97605.28;;;;119078;1187;25369;-70
2022/08/02 10:49:19;;;;;;;;;6.67;2.33;;;29.65;97602.89;;;;119066;1187;26312;-68
2022/08/02 10:52:08;;;;;;;;;5.50;5.00;;;29.69;97599.35;;;;119073;1187;25628;-68
2022/08/02 10:55:06;;;;;;;;;4.75;4.75;;;29.72;97607.83;;;;119150;1188;25678;-69
2022/08/02 10:57:41;;;;;;;;;5.50;4.75;;;29.75;97604.89;;;;118919;1190;24979;-71
2022/08/02 11:00:22;;;;;;;;;7.25;6.00;;;29.79;97597.73;;;;119084;1188;25154;-69
2022/08/02 11:02:52;;;;;;;;;8.50;6.25;;;29.79;97594.78;;;;119115;1186;24936;-71
2022/08/02 11:05:28;;;;;;;;;5.25;4.00;;;29.77;97597.18;;;;119006;1188;25674;-73
2022/08/02 11:08:18;;;;;;;;;5.50;4.50;;;29.80;97599.29;;;;119091;1188;26040;-66
2022/08/02 11:10:46;;;;;;;;;7.25;7.25;;;29.82;97595.24;;;;119114;1187;25912;-69
2022/08/02 11:13:16;;;;;;;;;4.75;4.75;;;29.81;97594.91;;;;119094;1188;26453;-73
2022/08/02 11:16:00;;;;;;;;;6.75;4.00;;;29.83;97593.23;;;;118989;1189;25231;-74
2022/08/02 11:18:49;;;;;;;;;4.00;4.00;;;29.85;97590.86;;;;118986;1188;26214;-72
2022/08/02 11:21:33;;;;;;;;;5.00;4.00;;;29.87;97584.27;;;;119001;1187;26282;-71
2022/08/02 11:24:25;;;;;;;;;5.00;5.00;;;29.86;97584.50;;;;119094;1188;25612;-71
2022/08/02 11:26:54;;;;;;;;;3.50;3.50;;;29.88;97583.91;;;;119008;1189;25425;-67
2022/08/02 11:29:50;;;;;;;;;5.75;5.75;;;29.87;97580.04;;;;118934;1188;25023;-66
2022/08/02 11:32:23;;;;;;;;;5.25;5.25;;;29.95;97579.48;;;;119116;1188;25386;-69
2022/08/02 11:34:59;;;;;;;;;5.50;5.50;;;30.02;97583.33;;;;118963;1189;25485;-68
2022/08/02 11:37:34;;;;;;;;;5.50;5.50;;;30.01;97583.56;;;;118987;1189;26110;-68
2022/08/02 11:40:04;;;;;;;;;5.50;5.25;;;30.02;97585.60;;;;118985;1188;26381;-70
2022/08/02 11:42:40;;;;;;;;;4.50;4.50;;;30.05;97586.03;;;;118970;1189;25948;-70
2022/08/02 11:45:09;;;;;;;;;6.00;5.00;;;30.06;97586.65;;;;119120;1187;25370;-70
2022/08/02 11:47:49;;;;;;;;;7.25;5.00;;;30.09;97586.20;;;;119094;1187;25662;-70
2022/08/02 11:50:19;;;;;;;;;4.50;4.00;;;30.13;97583.02;;;;118957;1189;25660;-69
2022/08/02 11:52:56;;;;;;;;;5.75;4.25;;;30.14;97579.06;;;;119113;1187;25027;-68
2022/08/02 11:55:29;;;;;;;;;7.50;5.75;;;30.16;97579.54;;;;119005;1189;25625;-69
2022/08/02 11:58:06;;;;;;;;;4.00;4.00;;;30.15;97580.24;;;;119081;1187;25073;-69
2022/08/02 12:00:34;;;;;;;;;3.75;3.00;;;30.15;97579.45;;;;119096;1188;25168;-69
2022/08/02 12:03:02;;;;;;;;;4.50;4.50;;;30.18;97579.75;;;;118976;1190;24915;-69
2022/08/02 12:05:31;;;;;;;;;5.50;4.00;;;30.19;97580.25;;;;119172;1187;25622;-71
2022/08/02 12:08:21;;;;;;;;;5.50;5.50;;;30.25;97578.88;;;;119166;1188;25583;-69
2022/08/02 12:10:52;;;;;;;;;5.00;5.00;;;30.30;97575.27;;;;119196;1186;24897;-68
2022/08/02 12:13:19;;;;;;;;;7.33;5.33;;;30.33;97576.64;;;;119146;1187;25408;-69
2022/08/02 12:15:47;;;;;;;;;5.67;5.00;;;30.31;97572.93;;;;119158;1188;25355;-67
2022/08/02 12:21:28;;;;;;;;;5.67;5.67;;;30.33;97576.28;;;;119143;1188;25242;-67
2022/08/02 12:23:56;;;;;;;;;4.25;3.25;;;30.38;97579.91;;;;119127;1187;24783;-68
2022/08/02 12:26:30;;;;;;;;;3.75;3.75;;;30.41;97578.73;;;;119138;1188;25222;-70
2022/08/02 12:28:58;;;;;;;;;8.00;6.25;;;30.41;97570.95;;;;119006;1188;25521;-69
2022/08/02 12:31:52;;;;;;;;;6.00;5.25;;;30.41;97573.71;;;;119108;1188;25305;-71
2022/08/02 12:34:25;;;;;;;;;4.00;4.00;;;30.48;97583.92;;;;119154;1187;25579;-72
2022/08/02 12:37:07;;;;;;;;;5.50;4.25;;;30.52;97579.80;;;;119151;1187;25292;-67